createdAt,value
2023-04-12T00:00:48.407Z,100057.97
2023-04-12T00:03:21.120Z,100050.75
2023-04-12T00:05:54.808Z,100044.75
2023-04-12T00:08:33.091Z,100038.69
2023-04-12T00:11:00.795Z,100029.72
2023-04-12T00:13:27.454Z,100023.19
2023-04-12T00:15:53.956Z,100028.19
2023-04-12T00:18:24.925Z,100024.91
2023-04-12T00:20:52.513Z,100025.06
2023-04-12T00:23:18.914Z,100017.16
2023-04-12T00:25:45.512Z,100023.63
2023-04-12T00:28:12.070Z,100035.56
2023-04-12T00:30:38.594Z,100021.91
2023-04-12T00:33:07.459Z,100018.16
2023-04-12T00:35:33.969Z,100024.63
2023-04-12T00:38:04.105Z,100016.47
2023-04-12T00:40:30.708Z,100017.97
2023-04-12T00:42:59.405Z,100014.31
2023-04-12T00:45:26.021Z,100021.25
2023-04-12T00:47:53.041Z,100016.59
2023-04-12T00:50:21.257Z,100015.72
2023-04-12T00:52:47.998Z,100012.91
2023-04-12T00:55:15.967Z,100011.66
2023-04-12T00:57:42.354Z,99999.06
2023-04-12T01:00:17.168Z,99994.09
2023-04-12T01:02:50.919Z,99997.00
2023-04-12T01:05:23.575Z,100002.31
2023-04-12T01:07:55.598Z,99998.06
2023-04-12T01:10:49.651Z,100001.84
2023-04-12T01:13:46.706Z,99988.81
2023-04-12T01:16:26.728Z,99979.69
2023-04-12T01:18:58.040Z,99984.81
2023-04-12T01:21:35.977Z,99975.41
2023-04-12T01:24:36.155Z,99971.56
2023-04-12T01:27:03.860Z,99967.44
2023-04-12T01:29:31.644Z,99960.50
2023-04-12T01:31:59.338Z,99959.13
2023-04-12T01:34:28.911Z,99953.06
2023-04-12T01:36:58.179Z,99952.50
2023-04-12T01:39:25.100Z,99945.69
2023-04-12T01:41:51.702Z,99938.53
2023-04-12T01:44:18.903Z,99937.75
2023-04-12T01:46:47.418Z,99934.38
2023-04-12T01:49:15.612Z,99929.09
2023-04-12T01:52:09.693Z,99928.91
2023-04-12T01:54:40.636Z,99926.47
2023-04-12T01:57:08.553Z,99926.69
2023-04-12T01:59:42.025Z,99914.38
2023-04-12T02:02:09.313Z,99912.66
2023-04-12T02:04:37.392Z,99906.00
2023-04-12T02:07:04.185Z,99899.88
2023-04-12T02:09:30.696Z,99891.53
2023-04-12T02:11:57.108Z,99892.84
2023-04-12T02:14:23.505Z,99884.50
2023-04-12T02:16:54.773Z,99876.03
2023-04-12T02:19:27.249Z,99869.72
2023-04-12T02:21:56.082Z,99865.75
2023-04-12T02:24:26.664Z,99869.00
2023-04-12T02:29:21.742Z,99859.28
2023-04-12T02:31:48.358Z,99855.41
2023-04-12T02:34:17.917Z,99859.19
2023-04-12T02:36:50.567Z,99852.91
2023-04-12T02:39:22.105Z,99835.66
2023-04-12T02:41:48.842Z,99831.03
2023-04-12T02:44:19.950Z,99827.84
2023-04-12T02:46:46.531Z,99826.69
2023-04-12T02:49:12.962Z,99809.41
2023-04-12T02:51:39.960Z,99808.25
2023-04-12T02:54:08.656Z,99802.97
2023-04-12T02:56:38.423Z,99799.81
2023-04-12T02:59:04.817Z,99792.81
2023-04-12T03:01:33.920Z,99794.22
2023-04-12T03:04:02.124Z,99786.41
2023-04-12T03:06:30.043Z,99786.56
2023-04-12T03:08:57.639Z,99774.72
2023-04-12T03:11:24.603Z,99773.81
2023-04-12T03:13:50.950Z,99771.63
2023-04-12T03:16:30.286Z,99754.22
2023-04-12T03:19:02.066Z,99753.97
2023-04-12T03:21:28.843Z,99751.69
2023-04-12T03:23:55.486Z,99756.31
2023-04-12T03:26:21.962Z,99743.88
2023-04-12T03:28:50.800Z,99743.47
2023-04-12T03:31:21.018Z,99752.06
2023-04-12T03:33:47.506Z,99743.38
2023-04-12T03:36:14.069Z,99738.59
2023-04-12T03:38:40.467Z,99727.34
2023-04-12T03:41:07.125Z,99719.75
2023-04-12T03:43:37.418Z,99705.09
2023-04-12T03:46:11.885Z,99712.88
2023-04-12T03:48:41.392Z,99706.69
2023-04-12T03:51:11.970Z,99692.69
2023-04-12T03:53:41.479Z,99689.03
2023-04-12T03:56:08.159Z,99685.31
2023-04-12T03:58:37.786Z,99680.00
2023-04-12T04:01:07.399Z,99673.22
2023-04-12T04:03:35.007Z,99670.78
2023-04-12T04:06:04.918Z,99662.63
2023-04-12T04:08:33.199Z,99656.81
2023-04-12T04:11:00.839Z,99650.78
2023-04-12T04:13:27.332Z,99644.06
2023-04-12T04:16:03.772Z,99651.78
2023-04-12T04:18:30.602Z,99643.34
2023-04-12T04:20:57.115Z,99628.31
2023-04-12T04:23:23.615Z,99632.66
2023-04-12T04:25:50.185Z,99627.97
2023-04-12T04:28:16.973Z,99616.38
2023-04-12T04:30:46.132Z,99605.16
2023-04-12T04:33:13.339Z,99606.31
2023-04-12T04:35:42.685Z,99603.97
2023-04-12T04:38:10.173Z,99603.09
2023-04-12T04:40:38.160Z,99587.50
2023-04-12T04:43:06.459Z,99597.28
2023-04-12T04:45:36.356Z,99598.44
2023-04-12T04:48:03.603Z,99588.75
2023-04-12T04:50:30.388Z,99587.09
2023-04-12T04:52:56.820Z,99589.19
2023-04-12T04:55:24.841Z,99592.84
2023-04-12T04:57:53.600Z,99584.50
2023-04-12T05:00:22.359Z,99590.84
2023-04-12T05:02:48.782Z,99590.41
2023-04-12T05:05:17.961Z,99585.88
2023-04-12T05:07:44.482Z,99577.28
2023-04-12T05:10:11.512Z,99582.78
2023-04-12T05:12:40.180Z,99581.09
2023-04-12T05:15:12.036Z,99579.75
2023-04-12T05:17:38.910Z,99568.41
2023-04-12T05:20:07.847Z,99559.47
2023-04-12T05:22:36.895Z,99565.34
2023-04-12T05:25:03.891Z,99555.66
2023-04-12T05:27:33.948Z,99555.72
2023-04-12T05:30:00.418Z,99546.41
2023-04-12T05:32:29.002Z,99541.16
2023-04-12T05:34:56.091Z,99540.34
2023-04-12T05:37:25.139Z,99533.28
2023-04-12T05:39:53.854Z,99535.22
2023-04-12T05:42:20.398Z,99533.75
2023-04-12T05:44:49.765Z,99516.97
2023-04-12T05:47:18.834Z,99507.84
2023-04-12T05:49:47.612Z,99496.19
2023-04-12T05:52:14.132Z,99496.25
2023-04-12T05:54:41.611Z,99484.19
2023-04-12T05:57:07.959Z,99484.50
2023-04-12T05:59:34.379Z,99490.81
2023-04-12T06:02:00.779Z,99478.53
2023-04-12T06:04:42.142Z,99466.19
2023-04-12T06:07:13.458Z,99453.66
2023-04-12T06:09:40.752Z,99444.34
2023-04-12T06:12:07.157Z,99443.53
2023-04-12T06:14:33.563Z,99433.91
2023-04-12T06:17:00.004Z,99430.53
2023-04-12T06:19:27.178Z,99436.03
2023-04-12T06:21:53.721Z,99425.44
2023-04-12T06:24:22.532Z,99428.91
2023-04-12T06:26:56.508Z,99420.41
2023-04-12T06:29:22.985Z,99426.94
2023-04-12T06:31:49.451Z,99423.22
2023-04-12T06:34:16.152Z,99423.03
2023-04-12T06:36:43.634Z,99420.78
2023-04-12T06:39:12.022Z,99410.53
2023-04-12T06:41:38.467Z,99404.09
2023-04-12T06:44:05.069Z,99402.97
2023-04-12T06:46:31.770Z,99397.72
2023-04-12T06:48:58.447Z,99398.91
2023-04-12T06:51:25.291Z,99393.44
2023-04-12T06:53:51.784Z,99387.06
2023-04-12T06:56:18.933Z,99375.50
2023-04-12T06:58:45.667Z,99370.06
2023-04-12T07:01:13.550Z,99365.44
2023-04-12T07:03:42.636Z,99358.66
2023-04-12T07:06:21.902Z,99366.63
2023-04-12T07:08:53.661Z,99367.81
2023-04-12T07:11:22.546Z,99368.19
2023-04-12T07:13:49.786Z,99368.56
2023-04-12T07:16:20.845Z,99348.03
2023-04-12T07:18:50.341Z,99350.94
2023-04-12T07:21:17.456Z,99336.34
2023-04-12T07:23:44.806Z,99331.47
2023-04-12T07:26:11.245Z,99315.75
2023-04-12T07:28:39.087Z,99315.91
2023-04-12T07:31:06.913Z,99314.53
2023-04-12T07:33:34.841Z,99302.38
2023-04-12T07:36:07.284Z,99300.44
2023-04-12T07:38:33.785Z,99297.22
2023-04-12T07:41:00.460Z,99278.81
2023-04-12T07:43:29.522Z,99280.63
2023-04-12T07:45:56.372Z,99274.59
2023-04-12T07:48:23.331Z,99262.84
2023-04-12T07:50:50.708Z,99254.16
2023-04-12T07:53:26.141Z,99255.59
2023-04-12T07:55:53.162Z,99254.59
2023-04-12T07:58:21.055Z,99254.19
2023-04-12T08:00:47.713Z,99250.34
2023-04-12T08:03:16.228Z,99248.72
2023-04-12T08:05:44.137Z,99237.22
2023-04-12T08:08:11.701Z,99236.19
2023-04-12T08:10:39.553Z,99235.00
2023-04-12T08:13:06.518Z,99229.53
2023-04-12T08:15:35.306Z,99224.09
2023-04-12T08:18:02.507Z,99234.59
2023-04-12T08:20:29.262Z,99238.28
2023-04-12T08:22:55.786Z,99235.66
2023-04-12T08:25:22.529Z,99219.84
2023-04-12T08:27:50.366Z,99221.03
2023-04-12T08:30:17.681Z,99219.19
2023-04-12T08:32:46.996Z,99211.66
2023-04-12T08:35:14.849Z,99203.28
2023-04-12T08:37:43.828Z,99215.09
2023-04-12T08:40:10.593Z,99209.28
2023-04-12T08:42:39.767Z,99205.47
2023-04-12T08:45:11.711Z,99208.28
2023-04-12T08:47:41.127Z,99220.38
2023-04-12T08:50:09.787Z,99216.81
2023-04-12T08:52:37.880Z,99213.34
2023-04-12T08:55:08.128Z,99219.69
2023-04-12T08:57:41.219Z,99204.63
2023-04-12T09:00:09.175Z,99203.69
2023-04-12T09:02:37.424Z,99206.34
2023-04-12T09:05:04.907Z,99203.44
2023-04-12T09:07:31.411Z,99203.56
2023-04-12T09:09:58.668Z,99204.38
2023-04-12T09:12:25.564Z,99193.59
2023-04-12T09:15:13.770Z,99193.63
2023-04-12T09:17:42.162Z,99190.19
2023-04-12T09:20:18.049Z,99185.78
2023-04-12T09:22:46.348Z,99181.63
2023-04-12T09:25:14.410Z,99183.59
2023-04-12T09:27:52.486Z,99187.66
2023-04-12T09:30:22.767Z,99181.56
2023-04-12T09:32:49.411Z,99176.06
2023-04-12T09:35:18.718Z,99163.44
2023-04-12T09:37:45.179Z,99157.53
2023-04-12T09:40:14.176Z,99150.44
2023-04-12T09:43:07.499Z,99145.56
2023-04-12T09:45:35.761Z,99144.59
2023-04-12T09:48:07.204Z,99151.56
2023-04-12T09:50:33.909Z,99151.06
2023-04-12T09:53:02.701Z,99150.72
2023-04-12T09:55:32.107Z,99145.50
2023-04-12T09:58:07.333Z,99147.41
2023-04-12T10:00:37.068Z,99142.13
2023-04-12T10:03:04.490Z,99134.94
2023-04-12T10:05:31.339Z,99131.50
2023-04-12T10:07:58.318Z,99129.59
2023-04-12T10:10:25.072Z,99133.41
2023-04-12T10:12:56.607Z,99130.41
2023-04-12T10:15:25.525Z,99126.41
2023-04-12T10:17:53.906Z,99136.53
2023-04-12T10:20:22.993Z,99128.03
2023-04-12T10:22:53.192Z,99117.28
2023-04-12T10:25:21.494Z,99119.47
2023-04-12T10:27:48.963Z,99111.25
2023-04-12T10:30:25.576Z,99113.50
2023-04-12T10:33:15.075Z,99112.50
2023-04-12T10:36:06.986Z,99111.13
2023-04-12T10:39:05.605Z,99099.06
2023-04-12T10:41:32.014Z,99102.25
2023-04-12T10:44:25.981Z,99097.34
2023-04-12T10:46:52.618Z,99096.75
2023-04-12T10:49:19.369Z,99093.16
2023-04-12T10:52:03.787Z,99093.09
2023-04-12T10:54:32.587Z,99097.28
2023-04-12T10:56:59.063Z,99091.34
2023-04-12T10:59:31.422Z,99086.91
2023-04-12T11:02:16.697Z,99074.94
2023-04-12T11:05:03.527Z,99081.00
2023-04-12T11:07:43.519Z,99075.81
2023-04-12T11:10:15.183Z,99074.66
2023-04-12T11:12:48.060Z,99073.78
2023-04-12T11:15:14.732Z,99076.81
2023-04-12T11:17:41.312Z,99074.19
2023-04-12T11:20:12.534Z,99064.56
2023-04-12T11:22:40.541Z,99066.41
2023-04-12T11:25:07.431Z,99063.53
2023-04-12T11:27:34.542Z,99057.22
2023-04-12T11:30:01.561Z,99061.66
2023-04-12T11:32:30.255Z,99061.28
2023-04-12T11:34:58.287Z,99054.31
2023-04-12T11:37:27.892Z,99047.38
2023-04-12T11:39:58.645Z,99051.94
2023-04-12T11:42:27.463Z,99039.31
2023-04-12T11:45:00.297Z,99044.09
2023-04-12T11:47:30.238Z,99049.66
2023-04-12T11:49:58.400Z,99052.44
2023-04-12T11:52:33.398Z,99050.53
2023-04-12T11:55:08.814Z,99040.31
2023-04-12T11:57:38.604Z,99036.31
2023-04-12T12:00:08.470Z,99042.63
2023-04-12T12:02:52.084Z,99027.16
2023-04-12T12:05:28.046Z,99026.78
2023-04-12T12:07:55.172Z,99013.56
2023-04-12T12:10:40.020Z,99012.69
2023-04-12T12:13:13.102Z,99007.06
2023-04-12T12:15:40.179Z,99006.56
2023-04-12T12:18:09.842Z,99013.38
2023-04-12T12:20:47.709Z,99010.19
2023-04-12T12:23:28.273Z,99005.97
2023-04-12T12:26:14.203Z,99013.91
2023-04-12T12:28:46.419Z,99003.09
2023-04-12T12:31:13.131Z,99014.94
2023-04-12T12:33:46.807Z,99005.75
2023-04-12T12:36:19.015Z,99023.00
2023-04-12T12:38:45.488Z,99006.06
2023-04-12T12:41:23.393Z,99005.56
2023-04-12T12:43:52.889Z,99010.25
2023-04-12T12:46:20.145Z,99004.03
2023-04-12T12:48:49.865Z,98993.03
2023-04-12T12:51:20.379Z,98990.75
2023-04-12T12:53:51.408Z,98989.88
2023-04-12T12:56:20.251Z,98989.31
2023-04-12T12:58:47.037Z,98976.09
2023-04-12T13:01:13.653Z,98982.63
2023-04-12T13:03:42.770Z,98979.69
2023-04-12T13:06:09.420Z,98980.81
2023-04-12T13:08:37.277Z,98969.47
2023-04-12T13:11:03.943Z,98968.75
2023-04-12T13:13:30.423Z,98972.75
2023-04-12T13:15:56.943Z,98964.75
2023-04-12T13:18:27.945Z,98959.91
2023-04-12T13:20:54.604Z,98966.44
2023-04-12T13:23:21.244Z,98963.25
2023-04-12T13:25:47.757Z,98965.09
2023-04-12T13:28:16.844Z,98969.94
2023-04-12T13:30:43.595Z,98964.28
2023-04-12T13:33:10.085Z,98965.66
2023-04-12T13:35:36.451Z,98960.84
2023-04-12T13:38:03.135Z,98953.31
2023-04-12T13:40:29.962Z,98959.59
2023-04-12T13:42:56.371Z,98946.56
2023-04-12T13:45:25.827Z,98938.94
2023-04-12T13:47:54.377Z,98933.69
2023-04-12T13:50:20.775Z,98936.22
2023-04-12T13:52:47.171Z,98940.38
2023-04-12T13:55:13.654Z,98959.50
2023-04-12T13:57:40.178Z,98960.94
2023-04-12T14:00:07.403Z,98965.75
2023-04-12T14:02:36.600Z,98969.31
2023-04-12T14:05:04.000Z,98978.91
2023-04-12T14:07:30.871Z,98971.75
2023-04-12T14:09:57.826Z,98971.84
2023-04-12T14:12:24.368Z,98972.09
2023-04-12T14:14:53.349Z,98975.69
2023-04-12T14:17:19.961Z,98967.16
2023-04-12T14:19:46.435Z,98965.44
2023-04-12T14:22:12.973Z,98965.78
2023-04-12T14:24:40.030Z,98975.97
2023-04-12T14:27:08.899Z,98980.31
2023-04-12T14:29:35.279Z,98990.16
2023-04-12T14:32:04.476Z,99005.47
2023-04-12T14:34:31.128Z,99012.16
2023-04-12T14:37:00.341Z,98996.84
2023-04-12T14:39:27.706Z,98989.59
2023-04-12T14:41:56.915Z,98992.31
2023-04-12T14:44:26.275Z,98991.88
2023-04-12T14:46:53.271Z,98996.03
2023-04-12T14:49:19.890Z,98989.06
2023-04-12T14:51:46.318Z,98975.81
2023-04-12T14:54:12.866Z,98988.50
2023-04-12T14:56:45.483Z,98991.56
2023-04-12T14:59:16.415Z,99013.47
2023-04-12T15:01:43.861Z,99022.28
2023-04-12T15:04:10.663Z,99017.22
2023-04-12T15:06:42.358Z,99015.75
2023-04-12T15:09:09.759Z,99020.63
2023-04-12T15:11:36.627Z,99018.56
2023-04-12T15:14:07.598Z,99028.69
2023-04-12T15:16:35.170Z,99021.88
2023-04-12T15:19:08.105Z,99034.22
2023-04-12T15:21:40.311Z,99045.88
2023-04-12T15:24:06.760Z,99044.09
2023-04-12T15:26:36.210Z,99053.00
2023-04-12T15:29:05.860Z,99055.72
2023-04-12T15:31:34.687Z,99054.47
2023-04-12T15:34:01.220Z,99049.94
2023-04-12T15:36:34.069Z,99060.41
2023-04-12T15:39:04.704Z,99064.22
2023-04-12T15:41:34.706Z,99052.00
2023-04-12T15:44:01.249Z,99049.47
2023-04-12T15:46:29.932Z,99054.56
2023-04-12T15:48:57.639Z,99057.19
2023-04-12T15:51:24.403Z,99049.13
2023-04-12T15:53:50.986Z,99037.09
2023-04-12T15:56:20.096Z,99040.59
2023-04-12T15:58:46.545Z,99043.53
2023-04-12T16:01:12.986Z,99037.81
2023-04-12T16:03:42.890Z,99038.47
2023-04-12T16:06:14.806Z,99037.41
2023-04-12T16:08:41.873Z,99041.13
2023-04-12T16:11:12.157Z,99044.50
2023-04-12T16:13:41.719Z,99039.88
2023-04-12T16:16:08.254Z,99030.50
2023-04-12T16:18:34.784Z,99043.16
2023-04-12T16:21:01.206Z,99049.66
2023-04-12T16:23:28.071Z,99031.53
2023-04-12T16:25:54.834Z,99036.44
2023-04-12T16:28:22.545Z,99028.28
2023-04-12T16:30:50.132Z,99031.50
2023-04-12T16:33:16.861Z,99033.94
2023-04-12T16:35:43.380Z,99025.63
2023-04-12T16:38:12.046Z,99025.09
2023-04-12T16:40:38.890Z,99023.78
2023-04-12T16:43:05.630Z,99028.94
2023-04-12T16:45:34.431Z,99027.47
2023-04-12T16:48:01.157Z,99039.69
2023-04-12T16:50:28.812Z,99045.69
2023-04-12T16:52:55.658Z,99049.06
2023-04-12T16:55:22.090Z,99036.84
2023-04-12T16:57:52.960Z,99034.47
2023-04-12T17:00:20.604Z,99030.91
2023-04-12T17:02:51.232Z,99024.41
2023-04-12T17:05:19.880Z,99030.72
2023-04-12T17:07:54.121Z,99035.47
2023-04-12T17:10:22.533Z,99042.38
2023-04-12T17:12:51.849Z,99044.78
2023-04-12T17:15:23.302Z,99048.56
2023-04-12T17:17:54.256Z,99050.00
2023-04-12T17:20:24.655Z,99055.19
2023-04-12T17:22:54.904Z,99053.44
2023-04-12T17:25:22.909Z,99057.13
2023-04-12T17:27:54.346Z,99057.03
2023-04-12T17:30:20.803Z,99065.09
2023-04-12T17:32:51.138Z,99073.69
2023-04-12T17:35:18.459Z,99075.59
2023-04-12T17:37:45.693Z,99085.94
2023-04-12T17:40:15.431Z,99090.31
2023-04-12T17:42:43.329Z,99081.81
2023-04-12T17:45:14.558Z,99075.88
2023-04-12T17:47:42.514Z,99079.56
2023-04-12T17:50:10.461Z,99075.44
2023-04-12T17:52:37.489Z,99066.41
2023-04-12T17:55:05.223Z,99059.50
2023-04-12T17:57:35.014Z,99055.41
2023-04-12T18:00:01.856Z,99069.31
2023-04-12T18:02:28.590Z,99058.94
2023-04-12T18:04:55.586Z,99062.63
2023-04-12T18:07:23.010Z,99058.09
2023-04-12T18:09:50.558Z,99057.22
2023-04-12T18:12:20.251Z,99063.59
2023-04-12T18:14:46.887Z,99066.13
2023-04-12T18:17:13.264Z,99073.56
2023-04-12T18:19:40.054Z,99068.59
2023-04-12T18:22:06.710Z,99072.25
2023-04-12T18:24:33.264Z,99076.16
2023-04-12T18:27:00.170Z,99083.72
2023-04-12T18:29:26.594Z,99073.09
2023-04-12T18:31:53.197Z,99076.19
2023-04-12T18:34:19.911Z,99088.13
2023-04-12T18:36:48.634Z,99094.41
2023-04-12T18:39:15.175Z,99107.63
2023-04-12T18:41:42.004Z,99123.81
2023-04-12T18:44:09.448Z,99142.88
2023-04-12T18:46:36.345Z,99148.56
2023-04-12T18:49:04.495Z,99158.50
2023-04-12T18:51:32.676Z,99160.31
2023-04-12T18:54:05.353Z,99161.53
2023-04-12T18:56:34.920Z,99165.41
2023-04-12T18:59:01.476Z,99171.47
2023-04-12T19:01:30.560Z,99171.47
2023-04-12T19:04:01.250Z,99176.50
2023-04-12T19:06:28.761Z,99174.09
2023-04-12T19:08:55.509Z,99172.66
2023-04-12T19:11:23.219Z,99179.13
2023-04-12T19:13:49.717Z,99183.41
2023-04-12T19:16:16.573Z,99196.56
2023-04-12T19:18:43.014Z,99194.91
2023-04-12T19:21:09.856Z,99195.53
2023-04-12T19:23:37.096Z,99208.69
2023-04-12T19:26:05.528Z,99215.97
2023-04-12T19:28:32.095Z,99222.88
2023-04-12T19:31:01.456Z,99223.66
2023-04-12T19:33:27.875Z,99222.88
2023-04-12T19:35:56.209Z,99223.06
2023-04-12T19:38:22.767Z,99237.63
2023-04-12T19:40:50.913Z,99247.53
2023-04-12T19:43:18.605Z,99241.28
2023-04-12T19:45:45.384Z,99247.13
2023-04-12T19:48:12.962Z,99247.13
2023-04-12T19:50:39.768Z,99245.31
2023-04-12T19:53:06.304Z,99240.66
2023-04-12T19:55:32.766Z,99226.09
2023-04-12T19:58:04.125Z,99227.13
2023-04-12T20:00:30.538Z,99231.34
2023-04-12T20:02:59.410Z,99242.69
2023-04-12T20:05:26.864Z,99245.50
2023-04-12T20:07:56.031Z,99243.88
2023-04-12T20:10:25.094Z,99246.72
2023-04-12T20:12:54.084Z,99262.88
2023-04-12T20:15:22.852Z,99267.31
2023-04-12T20:17:51.920Z,99272.16
2023-04-12T20:20:18.644Z,99289.72
2023-04-12T20:22:52.265Z,99288.72
2023-04-12T20:25:20.868Z,99287.69
2023-04-12T20:27:51.937Z,99289.09
2023-04-12T20:30:20.997Z,99298.59
2023-04-12T20:32:49.217Z,99294.91
2023-04-12T20:35:15.817Z,99293.69
2023-04-12T20:37:43.303Z,99290.91
2023-04-12T20:40:10.178Z,99298.78
2023-04-12T20:42:37.023Z,99306.59
2023-04-12T20:45:03.782Z,99301.50
2023-04-12T20:47:30.454Z,99313.19
2023-04-12T20:50:02.531Z,99317.69
2023-04-12T20:52:30.274Z,99308.91
2023-04-12T20:54:57.299Z,99318.69
2023-04-12T20:57:24.187Z,99335.03
2023-04-12T20:59:51.674Z,99348.16
2023-04-12T21:02:18.179Z,99330.41
2023-04-12T21:04:45.194Z,99335.66
2023-04-12T21:07:11.922Z,99343.00
2023-04-12T21:09:43.580Z,99349.56
2023-04-12T21:12:12.579Z,99351.38
2023-04-12T21:14:39.169Z,99350.56
2023-04-12T21:17:07.199Z,99351.16
2023-04-12T21:19:38.943Z,99358.66
2023-04-12T21:22:06.971Z,99358.75
2023-04-12T21:24:38.181Z,99357.25
2023-04-12T21:27:08.297Z,99359.88
2023-04-12T21:29:41.156Z,99354.25
2023-04-12T21:32:08.864Z,99349.00
2023-04-12T21:34:39.157Z,99347.94
2023-04-12T21:37:09.021Z,99347.44
2023-04-12T21:39:35.460Z,99352.81
2023-04-12T21:42:04.593Z,99353.56
2023-04-12T21:44:31.030Z,99357.91
2023-04-12T21:46:57.410Z,99359.53
2023-04-12T21:49:23.808Z,99356.72
2023-04-12T21:51:52.148Z,99354.19
2023-04-12T21:54:19.831Z,99364.50
2023-04-12T21:56:48.767Z,99366.88
2023-04-12T21:59:15.219Z,99377.00
2023-04-12T22:01:41.887Z,99383.53
2023-04-12T22:04:11.418Z,99374.50
2023-04-12T22:06:40.400Z,99365.72
2023-04-12T22:09:07.057Z,99378.66
2023-04-12T22:11:35.947Z,99384.22
2023-04-12T22:14:02.414Z,99390.38
2023-04-12T22:16:28.925Z,99386.81
2023-04-12T22:18:55.738Z,99393.00
2023-04-12T22:21:26.453Z,99394.09
2023-04-12T22:23:55.136Z,99395.19
2023-04-12T22:26:21.651Z,99404.13
2023-04-12T22:28:49.785Z,99407.13
2023-04-12T22:31:16.450Z,99400.53
2023-04-12T22:33:43.718Z,99401.78
2023-04-12T22:36:14.129Z,99402.72
2023-04-12T22:38:40.621Z,99408.50
2023-04-12T22:41:09.661Z,99407.84
2023-04-12T22:43:42.061Z,99411.34
2023-04-12T22:46:16.189Z,99413.16
2023-04-12T22:48:44.007Z,99409.16
2023-04-12T22:51:10.965Z,99410.09
2023-04-12T22:53:37.737Z,99414.88
2023-04-12T22:56:04.415Z,99412.63
2023-04-12T22:58:31.302Z,99409.81
2023-04-12T23:01:00.346Z,99418.41
2023-04-12T23:03:28.310Z,99412.53
2023-04-12T23:05:55.072Z,99413.91
2023-04-12T23:08:22.050Z,99418.44
2023-04-12T23:10:52.281Z,99422.59
2023-04-12T23:13:18.667Z,99421.34
2023-04-12T23:15:45.274Z,99410.59
2023-04-12T23:18:11.863Z,99411.75
2023-04-12T23:20:38.586Z,99412.13
2023-04-12T23:23:05.661Z,99417.06
2023-04-12T23:25:40.819Z,99418.63
2023-04-12T23:28:14.202Z,99413.19
2023-04-12T23:30:49.403Z,99408.06
2023-04-12T23:33:20.366Z,99412.28
2023-04-12T23:35:53.713Z,99409.84
2023-04-12T23:38:24.675Z,99405.59
2023-04-12T23:40:53.892Z,99394.94
2023-04-12T23:43:21.924Z,99396.75
2023-04-12T23:45:48.892Z,99389.16
2023-04-12T23:48:16.520Z,99384.19
2023-04-12T23:50:48.652Z,99393.34
2023-04-12T23:53:17.083Z,99394.13
2023-04-12T23:55:46.118Z,99394.75
2023-04-12T23:58:12.642Z,99395.75
